Terminal Aerodrome Forecast
Issued by NWS

Home | Current Version | Previous Version | Text Only | Print | Product List | Glossary On
Versions: 1 2 3 4 5 6 7 8 9 10 11 12 13 14 15 16 17 18 19 20 21 22 23 24 25 26 27 28 29 30 31 32 33 34 35 36 37 38 39 40 41
480
FTUS45 KBOU 251130
TAFBJC
TAF
KBJC 251130Z 2512/2612 27005KT P6SM FEW140
     FM251500 VRB05KT P6SM FEW140
     FM251800 12008KT P6SM SCT100
     FM252200 12012KT P6SM VCTS SCT080CB BKN140
     FM260200 18012KT P6SM FEW080 BKN140=

USA.gov is the U.S. government's official web portal to all federal, state and local government web resources and services.